Archival Weather

Chicago O'Hare International

Chicago, Illinois (KORD)

Report from: Thursday, November 24, 2022 11:51 AM CST
Current time: Sunday, December 4, 2022 5:41 AM CST

Current weather
Weather history
Weather forecast

Temperature10.6°C (51.1°F)
Dew point0.6°C (33.1°F)
Winds 10 kts (5.1 m/s, 11.5 mph) South-Southwest (210°)
Visibility10 mi. (16.1 km)
Clouds Ceiling: Broken clouds 1,500 ft. (457 m)
Broken clouds 6,500 ft. (1,981 m)
Broken clouds 9,500 ft. (2,896 m)
Broken clouds 25,000 ft. (7,620 m)
Altimeter30.08 in.Hg (1019 mB)
Precip last 3 hoursTrace
Relative humidity50 %
Density altitude-609 ft. (-186 m)
Sea-level pressure101.9 kPa (1019 mB, 30.09 in.Hg)
Max temp last 6 hours10.6°C (51.1°F)
Min temp last 6 hours1.7°C (35.1°F)
Remarks System requires maintenance
Automated weather observing station with precipitation discriminator
Pressure falling more quickly
Flight conditions Marginal Visual Meteorological Conditions
Raw dataKORD 241751Z 21010KT 10SM BKN015 BKN065 BKN095 BKN250 11/01 A3008 RMK AO2 SLP188 60000 T01060006 10106 20017 58018 $
An error has occurred. This application may no longer respond until reloaded. Reload 🗙